Time;durP1;ratioP1;P1;durP2;ratioP2;P2;SDS_P1;SDS_P2;PMS_P1;PMS_P2;Temp;Humidity;BMP_temperature;BMP_pressure;BME280_temperature;BME280_humidity;BME280_pressure;Samples;Min_cycle;Max_cycle;Signal;HPM_P1;HPM_P2
2023/03/04 00:00:52;;;;;;;4.38;1.65;;;;;;;;;;4982613;28;20507;-89
2023/03/04 00:03:18;;;;;;;5.13;1.60;;;;;;;;;;4981906;28;20050;-90
2023/03/04 00:05:43;;;;;;;3.20;1.40;;;;;;;;;;5013617;28;20483;-89
2023/03/04 00:08:09;;;;;;;5.82;1.38;;;;;;;;;;5012791;28;20092;-90
2023/03/04 00:10:34;;;;;;;5.78;1.40;;;;;;;;;;5013983;28;20034;-91
2023/03/04 00:13:00;;;;;;;4.20;1.50;;;;;;;;;;4996587;28;20477;-90
2023/03/04 00:15:25;;;;;;;3.47;1.40;;;;;;;;;;5013436;28;20515;-90
2023/03/04 00:17:50;;;;;;;5.35;1.40;;;;;;;;;;4979557;28;20037;-91
2023/03/04 00:20:16;;;;;;;4.30;1.20;;;;;;;;;;4996223;28;20036;-90
2023/03/04 00:22:41;;;;;;;4.53;1.30;;;;;;;;;;4980316;28;20037;-89
2023/03/04 00:25:07;;;;;;;3.70;1.38;;;;;;;;;;5012240;28;20133;-90
2023/03/04 00:27:32;;;;;;;2.92;1.27;;;;;;;;;;4996269;28;20037;-90
2023/03/04 00:29:58;;;;;;;2.72;1.23;;;;;;;;;;4995960;28;20044;-89
2023/03/04 00:32:23;;;;;;;4.65;1.77;;;;;;;;;;4996537;28;20085;-91
2023/03/04 00:34:48;;;;;;;1.45;0.98;;;;;;;;;;4995623;28;20100;-88
2023/03/04 00:37:14;;;;;;;3.35;1.00;;;;;;;;;;4980553;28;20120;-90
2023/03/04 00:39:39;;;;;;;5.28;1.42;;;;;;;;;;5012335;28;20409;-91
2023/03/04 00:42:05;;;;;;;2.10;1.10;;;;;;;;;;5013579;28;20026;-90
2023/03/04 00:44:30;;;;;;;4.78;1.73;;;;;;;;;;4995827;28;20049;-89
2023/03/04 00:46:55;;;;;;;3.53;1.60;;;;;;;;;;4979527;28;20120;-91
2023/03/04 00:49:21;;;;;;;2.88;1.10;;;;;;;;;;5013871;28;20044;-90
2023/03/04 00:51:46;;;;;;;3.10;1.33;;;;;;;;;;4996431;28;20026;-92
2023/03/04 00:54:12;;;;;;;3.88;1.27;;;;;;;;;;5013670;28;20080;-90
2023/03/04 00:56:37;;;;;;;2.47;1.17;;;;;;;;;;4979987;28;20038;-91
2023/03/04 00:59:03;;;;;;;3.08;1.27;;;;;;;;;;4995731;28;20110;-90
2023/03/04 01:01:28;;;;;;;5.13;1.40;;;;;;;;;;4996035;28;20034;-90
2023/03/04 01:03:54;;;;;;;1.90;1.00;;;;;;;;;;4995884;28;20105;-91
2023/03/04 01:06:19;;;;;;;2.88;1.20;;;;;;;;;;5001115;28;20081;-92
2023/03/04 01:08:45;;;;;;;3.05;1.38;;;;;;;;;;4999809;28;20049;-90
2023/03/04 01:11:10;;;;;;;1.98;0.90;;;;;;;;;;4995686;28;20120;-90
2023/03/04 01:13:35;;;;;;;3.67;1.10;;;;;;;;;;5012944;28;20512;-91
2023/03/04 01:16:02;;;;;;;4.47;1.42;;;;;;;;;;5015195;28;20026;-90
2023/03/04 01:18:28;;;;;;;5.22;1.45;;;;;;;;;;5000544;28;20433;-90
2023/03/04 01:20:53;;;;;;;1.90;1.10;;;;;;;;;;5023793;28;20076;-91
2023/03/04 01:23:19;;;;;;;2.58;1.27;;;;;;;;;;5025923;28;20021;-91
2023/03/04 01:25:44;;;;;;;3.25;1.20;;;;;;;;;;5018180;28;20440;-92
2023/03/04 01:28:10;;;;;;;3.60;1.20;;;;;;;;;;5000969;28;20056;-91
2023/03/04 01:30:35;;;;;;;3.25;1.20;;;;;;;;;;5017148;28;20108;-92
2023/03/04 01:33:01;;;;;;;2.20;0.90;;;;;;;;;;5000149;28;20113;-92
2023/03/04 01:35:26;;;;;;;2.05;1.00;;;;;;;;;;5000808;28;20025;-92
2023/03/04 01:37:52;;;;;;;2.97;1.10;;;;;;;;;;4999461;28;20029;-92
2023/03/04 01:40:17;;;;;;;2.17;1.08;;;;;;;;;;4966730;28;20037;-91
2023/03/04 01:42:43;;;;;;;2.30;1.20;;;;;;;;;;4999051;28;20392;-90
2023/03/04 01:45:17;;;;;;;1.98;1.20;;;;;;;;;;4999171;28;20032;-91
2023/03/04 01:47:47;;;;;;;1.40;1.00;;;;;;;;;;4999008;28;20074;-91
2023/03/04 01:50:33;;;;;;;3.08;1.35;;;;;;;;;;4999101;28;20057;-92
2023/03/04 01:53:00;;;;;;;2.38;1.27;;;;;;;;;;5016283;28;20030;-91
2023/03/04 01:55:25;;;;;;;2.22;0.82;;;;;;;;;;5016629;28;20101;-90
2023/03/04 01:57:51;;;;;;;3.05;1.13;;;;;;;;;;4998470;28;20073;-89
2023/03/04 02:00:37;;;;;;;2.42;1.13;;;;;;;;;;4998647;28;20105;-87
2023/03/04 02:03:10;;;;;;;3.45;1.40;;;;;;;;;;5015777;28;20120;-88
2023/03/04 02:05:37;;;;;;;3.35;1.20;;;;;;;;;;4998625;28;20022;-90
2023/03/04 02:08:03;;;;;;;2.67;1.05;;;;;;;;;;4998454;28;20029;-90
2023/03/04 02:10:29;;;;;;;3.70;1.02;;;;;;;;;;4982827;28;20040;-90
2023/03/04 02:12:56;;;;;;;3.10;1.67;;;;;;;;;;4981724;28;20120;-90
2023/03/04 02:15:22;;;;;;;2.25;1.00;;;;;;;;;;4982170;28;20538;-89
2023/03/04 02:17:47;;;;;;;2.90;1.00;;;;;;;;;;4998769;28;20038;-89
2023/03/04 02:20:42;;;;;;;2.17;0.88;;;;;;;;;;4982021;28;20444;-91
2023/03/04 02:23:15;;;;;;;;;;;;;;;;;;4999225;28;20029;-91
2023/03/04 02:26:08;;;;;;;5.60;1.45;;;;;;;;;;4998272;28;19964;-91
2023/03/04 02:28:34;;;;;;;4.35;1.10;;;;;;;;;;5015298;28;20061;-90
2023/03/04 02:30:59;;;;;;;1.95;1.13;;;;;;;;;;4997969;28;20054;-90
2023/03/04 02:33:25;;;;;;;1.67;0.90;;;;;;;;;;5015596;28;20041;-90
2023/03/04 02:35:50;;;;;;;2.15;0.90;;;;;;;;;;5015428;28;20392;-91
2023/03/04 02:38:16;;;;;;;0.98;0.73;;;;;;;;;;4998222;28;20433;-89
2023/03/04 02:40:44;;;;;;;2.55;1.00;;;;;;;;;;5014119;28;20038;-89
2023/03/04 02:43:13;;;;;;;2.10;1.00;;;;;;;;;;4981547;28;20096;-89
2023/03/04 02:45:49;;;;;;;2.05;1.10;;;;;;;;;;4981989;28;20025;-90
2023/03/04 02:48:17;;;;;;;2.33;1.15;;;;;;;;;;4981763;28;20045;-89
2023/03/04 02:50:48;;;;;;;3.53;1.20;;;;;;;;;;4997709;28;20042;-89
2023/03/04 02:53:14;;;;;;;3.00;1.13;;;;;;;;;;4982275;28;20392;-90
2023/03/04 02:55:41;;;;;;;4.60;1.08;;;;;;;;;;4981775;28;20123;-90
2023/03/04 02:58:06;;;;;;;3.17;1.08;;;;;;;;;;4997667;28;20025;-89
2023/03/04 03:00:35;;;;;;;2.15;1.13;;;;;;;;;;4997467;28;20036;-89
2023/03/04 03:03:00;;;;;;;2.85;1.00;;;;;;;;;;5015147;28;20053;-90
2023/03/04 03:05:29;;;;;;;3.25;1.10;;;;;;;;;;4997601;28;20038;-90
2023/03/04 03:07:54;;;;;;;2.40;0.80;;;;;;;;;;4980907;28;20029;-90
2023/03/04 03:10:20;;;;;;;6.95;1.40;;;;;;;;;;5014906;28;20032;-90
2023/03/04 03:12:46;;;;;;;1.75;0.90;;;;;;;;;;4980806;28;20374;-90
2023/03/04 03:15:11;;;;;;;2.90;1.05;;;;;;;;;;4997234;28;20401;-91
2023/03/04 03:17:37;;;;;;;1.48;0.80;;;;;;;;;;4997621;28;20117;-91
2023/03/04 03:20:03;;;;;;;1.95;1.05;;;;;;;;;;4997383;28;20505;-89
2023/03/04 03:22:28;;;;;;;4.95;1.40;;;;;;;;;;4997052;28;20441;-91
2023/03/04 03:24:54;;;;;;;4.30;0.90;;;;;;;;;;5014957;28;20345;-90
2023/03/04 03:27:19;;;;;;;2.55;0.98;;;;;;;;;;4999346;28;20030;-90
2023/03/04 03:29:44;;;;;;;2.70;1.17;;;;;;;;;;5015227;28;20041;-89
2023/03/04 03:32:10;;;;;;;1.67;1.00;;;;;;;;;;5014976;28;20054;-90
2023/03/04 03:34:35;;;;;;;2.03;0.68;;;;;;;;;;4981237;28;20393;-90
2023/03/04 03:37:01;;;;;;;2.22;0.93;;;;;;;;;;5014274;28;20040;-91
2023/03/04 03:39:26;;;;;;;1.98;0.90;;;;;;;;;;5014267;28;20157;-90
2023/03/04 03:41:52;;;;;;;3.97;1.08;;;;;;;;;;5014603;28;20492;-90
2023/03/04 03:44:17;;;;;;;3.42;0.90;;;;;;;;;;5014691;28;20021;-90
2023/03/04 03:46:42;;;;;;;2.55;1.00;;;;;;;;;;4997006;28;20397;-90
2023/03/04 03:49:08;;;;;;;2.10;0.90;;;;;;;;;;4996908;28;20028;-89
2023/03/04 03:51:33;;;;;;;3.47;1.02;;;;;;;;;;4995344;28;20405;-89
2023/03/04 03:53:58;;;;;;;3.13;1.02;;;;;;;;;;4996438;28;20042;-90
2023/03/04 03:56:24;;;;;;;2.67;1.08;;;;;;;;;;4997680;28;20376;-91
2023/03/04 03:58:49;;;;;;;2.58;1.00;;;;;;;;;;4996408;28;20037;-90
2023/03/04 04:01:14;;;;;;;3.38;1.10;;;;;;;;;;4996436;28;20033;-90
2023/03/04 04:03:40;;;;;;;4.03;1.00;;;;;;;;;;4996069;28;20091;-90
2023/03/04 04:06:05;;;;;;;3.05;1.08;;;;;;;;;;4980205;28;20117;-90
2023/03/04 04:08:32;;;;;;;2.70;1.08;;;;;;;;;;4996131;28;20026;-90
2023/03/04 04:10:57;;;;;;;2.50;1.10;;;;;;;;;;4981762;28;20030;-90
2023/03/04 04:13:23;;;;;;;1.63;0.80;;;;;;;;;;4996393;28;20165;-90
2023/03/04 04:15:52;;;;;;;4.20;1.42;;;;;;;;;;4996482;28;20034;-90
2023/03/04 04:18:18;;;;;;;4.38;0.80;;;;;;;;;;4997287;28;20097;-90
2023/03/04 04:20:49;;;;;;;2.35;0.90;;;;;;;;;;5000459;28;20058;-89
2023/03/04 04:23:15;;;;;;;3.60;0.98;;;;;;;;;;5013220;28;20056;-90
2023/03/04 04:25:40;;;;;;;1.90;0.95;;;;;;;;;;4996057;28;20477;-89
2023/03/04 04:28:06;;;;;;;3.63;1.17;;;;;;;;;;4980676;28;20038;-90
2023/03/04 04:30:31;;;;;;;2.72;1.10;;;;;;;;;;5013682;28;20021;-90
2023/03/04 04:33:00;;;;;;;0.90;0.82;;;;;;;;;;4980006;28;20033;-90
2023/03/04 04:35:25;;;;;;;1.10;0.75;;;;;;;;;;5013448;28;20062;-90
2023/03/04 04:37:51;;;;;;;1.45;0.63;;;;;;;;;;4996147;28;20436;-89
2023/03/04 04:40:16;;;;;;;2.35;0.90;;;;;;;;;;5014064;28;20030;-90
2023/03/04 04:42:42;;;;;;;1.92;1.00;;;;;;;;;;4996566;28;20125;-89
2023/03/04 04:45:08;;;;;;;2.35;1.17;;;;;;;;;;4979715;28;20037;-90
2023/03/04 04:47:33;;;;;;;2.28;0.77;;;;;;;;;;5013488;28;20045;-89
2023/03/04 04:49:58;;;;;;;1.77;0.95;;;;;;;;;;5013332;28;20544;-90
2023/03/04 04:52:24;;;;;;;2.50;0.90;;;;;;;;;;5000193;28;20034;-90
2023/03/04 04:54:49;;;;;;;2.45;1.00;;;;;;;;;;5017292;28;20069;-89
2023/03/04 04:57:15;;;;;;;2.35;0.95;;;;;;;;;;5017538;28;20033;-91
2023/03/04 04:59:40;;;;;;;2.35;0.90;;;;;;;;;;5000043;28;20060;-91
2023/03/04 05:02:05;;;;;;;1.20;0.75;;;;;;;;;;5017438;28;20100;-90
2023/03/04 05:04:31;;;;;;;2.50;1.00;;;;;;;;;;5017677;28;20030;-90
2023/03/04 05:06:56;;;;;;;2.83;0.90;;;;;;;;;;5017656;28;20030;-91
2023/03/04 05:09:22;;;;;;;2.58;0.77;;;;;;;;;;5017356;28;20033;-91
2023/03/04 05:11:48;;;;;;;2.30;0.93;;;;;;;;;;4983085;28;20030;-91
2023/03/04 05:14:13;;;;;;;4.00;0.90;;;;;;;;;;4999553;28;20057;-91
2023/03/04 05:16:38;;;;;;;1.95;0.90;;;;;;;;;;4983171;28;20412;-91
2023/03/04 05:19:04;;;;;;;1.70;0.75;;;;;;;;;;5018046;28;20044;-90
2023/03/04 05:21:29;;;;;;;1.90;0.88;;;;;;;;;;4983408;28;20033;-91
2023/03/04 05:23:55;;;;;;;1.92;0.90;;;;;;;;;;5000737;28;20030;-91
2023/03/04 05:26:20;;;;;;;3.00;1.10;;;;;;;;;;5001222;28;20040;-92
2023/03/04 05:28:45;;;;;;;0.70;0.70;;;;;;;;;;4985779;28;20429;-91
2023/03/04 05:31:11;;;;;;;1.63;0.80;;;;;;;;;;5001069;28;20030;-89
2023/03/04 05:33:37;;;;;;;1.98;1.02;;;;;;;;;;5016873;28;20437;-90
2023/03/04 05:36:03;;;;;;;2.58;1.20;;;;;;;;;;4999443;28;20457;-92
2023/03/04 05:38:29;;;;;;;3.35;0.98;;;;;;;;;;4983034;28;20496;-91
2023/03/04 05:40:57;;;;;;;1.45;0.80;;;;;;;;;;5017854;28;20140;-90
2023/03/04 05:43:23;;;;;;;2.08;0.93;;;;;;;;;;4999472;28;20060;-90
2023/03/04 05:45:48;;;;;;;1.90;0.75;;;;;;;;;;5000194;28;20029;-90
2023/03/04 05:48:14;;;;;;;2.55;0.82;;;;;;;;;;5000156;28;20552;-90
2023/03/04 05:50:39;;;;;;;1.23;0.70;;;;;;;;;;5016955;28;20060;-90
2023/03/04 05:53:05;;;;;;;1.70;0.82;;;;;;;;;;5017652;28;20045;-92
2023/03/04 05:55:33;;;;;;;2.10;0.90;;;;;;;;;;5016999;28;20049;-91
2023/03/04 05:58:01;;;;;;;2.58;0.98;;;;;;;;;;5002208;28;20089;-91
2023/03/04 06:00:26;;;;;;;1.35;0.80;;;;;;;;;;4975917;28;20388;-88
2023/03/04 06:02:52;;;;;;;3.03;1.05;;;;;;;;;;4997901;28;20133;-92
2023/03/04 06:05:18;;;;;;;0.80;0.68;;;;;;;;;;4999301;28;20393;-90
2023/03/04 06:07:43;;;;;;;1.17;0.70;;;;;;;;;;4999940;28;20022;-90
2023/03/04 06:10:12;;;;;;;2.55;0.70;;;;;;;;;;4982807;28;20029;-90
2023/03/04 06:12:37;;;;;;;1.83;0.88;;;;;;;;;;4982486;28;20436;-90
2023/03/04 06:15:04;;;;;;;1.30;0.65;;;;;;;;;;4983166;28;20036;-90
2023/03/04 06:17:31;;;;;;;1.83;1.02;;;;;;;;;;4985845;28;20029;-91
2023/03/04 06:19:59;;;;;;;2.83;0.95;;;;;;;;;;5016983;28;20473;-90
2023/03/04 06:22:25;;;;;;;1.52;0.90;;;;;;;;;;5000070;28;20034;-91
2023/03/04 06:24:50;;;;;;;1.65;0.80;;;;;;;;;;5015069;28;20056;-90
2023/03/04 06:27:16;;;;;;;1.77;0.80;;;;;;;;;;5016805;28;20058;-90
2023/03/04 06:29:41;;;;;;;4.00;1.00;;;;;;;;;;5016428;28;20033;-91
2023/03/04 06:32:07;;;;;;;2.05;0.70;;;;;;;;;;5017459;28;20061;-91
2023/03/04 06:34:32;;;;;;;2.38;0.88;;;;;;;;;;5016719;28;20312;-93
2023/03/04 06:36:58;;;;;;;0.88;0.70;;;;;;;;;;5014734;28;20165;-90
2023/03/04 06:39:24;;;;;;;2.63;0.80;;;;;;;;;;5016542;28;20033;-91
2023/03/04 06:41:50;;;;;;;2.10;1.00;;;;;;;;;;4983183;28;20029;-92
2023/03/04 06:44:15;;;;;;;0.90;0.50;;;;;;;;;;4982192;28;20028;-92
2023/03/04 06:46:41;;;;;;;1.98;0.75;;;;;;;;;;4998557;28;20385;-92
2023/03/04 06:49:06;;;;;;;2.72;0.93;;;;;;;;;;4999846;28;20362;-91
2023/03/04 06:51:31;;;;;;;2.30;0.90;;;;;;;;;;5015555;28;20469;-93
2023/03/04 06:53:57;;;;;;;3.17;0.90;;;;;;;;;;4981954;28;20030;-91
2023/03/04 06:56:22;;;;;;;3.67;0.77;;;;;;;;;;5001449;28;20449;-92
2023/03/04 06:58:48;;;;;;;3.05;1.05;;;;;;;;;;4997965;28;20432;-91
2023/03/04 07:01:25;;;;;;;1.35;0.80;;;;;;;;;;4997700;28;20030;-91
2023/03/04 07:03:51;;;;;;;1.98;0.88;;;;;;;;;;5015170;28;20076;-91
2023/03/04 07:06:20;;;;;;;2.47;1.08;;;;;;;;;;4997694;28;20473;-91
2023/03/04 07:08:45;;;;;;;1.30;0.73;;;;;;;;;;4997236;28;20029;-90
2023/03/04 07:11:11;;;;;;;1.58;0.82;;;;;;;;;;4997766;28;20076;-90
2023/03/04 07:13:37;;;;;;;1.40;0.60;;;;;;;;;;4997651;28;20088;-89
2023/03/04 07:16:10;;;;;;;1.73;0.68;;;;;;;;;;4981350;28;20469;-91
2023/03/04 07:18:36;;;;;;;1.23;0.80;;;;;;;;;;5015389;28;20213;-90
2023/03/04 07:21:02;;;;;;;1.45;0.77;;;;;;;;;;4980975;28;20153;-90
2023/03/04 07:23:27;;;;;;;2.05;0.80;;;;;;;;;;4997199;28;20029;-90
2023/03/04 07:25:53;;;;;;;2.70;0.95;;;;;;;;;;5015010;28;20025;-90
2023/03/04 07:28:18;;;;;;;1.05;0.75;;;;;;;;;;4980576;28;20025;-91
2023/03/04 07:30:44;;;;;;;1.95;1.00;;;;;;;;;;4997201;28;20088;-89
2023/03/04 07:33:10;;;;;;;1.50;0.80;;;;;;;;;;4980966;28;20124;-90
2023/03/04 07:35:35;;;;;;;1.55;1.08;;;;;;;;;;5014715;28;20034;-89
2023/03/04 07:38:01;;;;;;;1.73;0.80;;;;;;;;;;4998110;28;20030;-87
2023/03/04 07:40:26;;;;;;;2.22;1.00;;;;;;;;;;5016498;28;20386;-91
2023/03/04 07:42:53;;;;;;;1.23;0.88;;;;;;;;;;4965771;28;20370;-89
2023/03/04 07:45:19;;;;;;;2.13;1.00;;;;;;;;;;4998545;28;20487;-90
2023/03/04 07:47:44;;;;;;;1.45;0.95;;;;;;;;;;5015265;28;20124;-91
2023/03/04 07:50:10;;;;;;;6.10;1.05;;;;;;;;;;5016044;28;20543;-92
2023/03/04 07:52:44;;;;;;;1.80;0.90;;;;;;;;;;5016031;28;20052;-91
2023/03/04 07:55:10;;;;;;;;;;;;;;;;;;4998346;28;20026;-88
2023/03/04 07:57:38;;;;;;;1.67;0.95;;;;;;;;;;4997851;28;19913;-91
2023/03/04 08:00:04;;;;;;;1.73;1.00;;;;;;;;;;5016245;28;20077;-91
2023/03/04 08:02:29;;;;;;;1.65;0.90;;;;;;;;;;4983714;28;20033;-91
2023/03/04 08:04:55;;;;;;;2.22;0.90;;;;;;;;;;5021566;28;20030;-90
2023/03/04 08:07:20;;;;;;;1.77;0.90;;;;;;;;;;5001298;28;20030;-90
2023/03/04 08:09:45;;;;;;;1.00;0.65;;;;;;;;;;4997566;28;20030;-91
2023/03/04 08:12:11;;;;;;;2.55;1.10;;;;;;;;;;5015740;28;20094;-90
2023/03/04 08:14:36;;;;;;;2.92;1.08;;;;;;;;;;4997689;28;20037;-91
2023/03/04 08:17:02;;;;;;;1.25;0.82;;;;;;;;;;5025494;28;20030;-90
2023/03/04 08:19:27;;;;;;;3.58;1.15;;;;;;;;;;5004722;28;20037;-92
2023/03/04 08:21:53;;;;;;;1.15;0.85;;;;;;;;;;4999357;28;20030;-92
2023/03/04 08:24:18;;;;;;;3.08;1.20;;;;;;;;;;4997782;28;20032;-92
2023/03/04 08:26:46;;;;;;;1.23;0.90;;;;;;;;;;4983948;28;20034;-91
2023/03/04 08:29:14;;;;;;;2.53;0.90;;;;;;;;;;4998445;28;20117;-92
2023/03/04 08:31:40;;;;;;;1.58;0.88;;;;;;;;;;4997168;28;20076;-91
2023/03/04 08:34:07;;;;;;;0.75;0.63;;;;;;;;;;4996749;28;20477;-92
2023/03/04 08:36:33;;;;;;;1.17;0.70;;;;;;;;;;4997568;28;20033;-92
2023/03/04 08:38:58;;;;;;;0.70;0.70;;;;;;;;;;4981335;28;20026;-91
2023/03/04 08:41:26;;;;;;;0.80;0.70;;;;;;;;;;5015832;28;20030;-91
2023/03/04 08:43:51;;;;;;;2.22;0.70;;;;;;;;;;4998977;28;20026;-92
2023/03/04 08:46:17;;;;;;;1.27;0.50;;;;;;;;;;5016174;28;20036;-94
2023/03/04 08:48:42;;;;;;;1.45;0.60;;;;;;;;;;4967330;28;20044;-91
2023/03/04 08:51:09;;;;;;;0.75;0.50;;;;;;;;;;5000696;28;20515;-91
2023/03/04 08:53:36;;;;;;;0.65;0.65;;;;;;;;;;4994865;28;20034;-91
2023/03/04 08:56:01;;;;;;;2.20;0.65;;;;;;;;;;4964168;28;20393;-88
2023/03/04 08:58:27;;;;;;;1.10;0.63;;;;;;;;;;4979658;28;20037;-91
2023/03/04 09:00:52;;;;;;;1.70;0.60;;;;;;;;;;4964401;28;20031;-90
2023/03/04 09:03:19;;;;;;;1.27;0.70;;;;;;;;;;4978270;28;20030;-90
2023/03/04 09:05:46;;;;;;;1.38;0.70;;;;;;;;;;4978030;28;20018;-91
2023/03/04 09:08:12;;;;;;;0.73;0.47;;;;;;;;;;4996303;28;20076;-91
2023/03/04 09:10:38;;;;;;;1.00;0.80;;;;;;;;;;4996442;28;20031;-89
2023/03/04 09:13:05;;;;;;;0.95;0.50;;;;;;;;;;4960709;28;20038;-90
2023/03/04 09:15:30;;;;;;;1.15;0.52;;;;;;;;;;4993246;28;20504;-92
2023/03/04 09:17:56;;;;;;;1.02;0.70;;;;;;;;;;4995483;28;20030;-92
2023/03/04 09:20:22;;;;;;;1.02;0.60;;;;;;;;;;4994569;28;20065;-92
2023/03/04 09:22:47;;;;;;;0.80;0.50;;;;;;;;;;4995212;28;20030;-92
2023/03/04 09:25:14;;;;;;;1.08;0.57;;;;;;;;;;4982437;28;20425;-94
2023/03/04 09:27:40;;;;;;;1.35;0.80;;;;;;;;;;4963979;28;20022;-91
2023/03/04 09:30:06;;;;;;;1.23;0.70;;;;;;;;;;4980627;28;20026;-91
2023/03/04 09:32:32;;;;;;;1.40;0.63;;;;;;;;;;4982566;28;20090;-91
2023/03/04 09:34:57;;;;;;;2.38;0.90;;;;;;;;;;5000817;28;20030;-88
2023/03/04 09:37:23;;;;;;;1.13;0.63;;;;;;;;;;4982299;28;20101;-90
2023/03/04 09:39:49;;;;;;;1.73;0.77;;;;;;;;;;4968566;28;20504;-91
2023/03/04 09:42:25;;;;;;;0.70;0.60;;;;;;;;;;4982512;28;20030;-91
2023/03/04 09:44:51;;;;;;;1.08;0.70;;;;;;;;;;4982074;28;20544;-91
2023/03/04 09:47:17;;;;;;;1.42;0.60;;;;;;;;;;4981865;28;20034;-90
2023/03/04 09:49:59;;;;;;;2.63;0.60;;;;;;;;;;4980304;28;20393;-84
2023/03/04 09:52:48;;;;;;;1.17;0.45;;;;;;;;;;4966405;28;20133;-86
2023/03/04 09:55:20;;;;;;;1.92;0.70;;;;;;;;;;4980279;28;20028;-87
2023/03/04 09:57:45;;;;;;;0.80;0.70;;;;;;;;;;4964004;28;20488;-88
2023/03/04 10:00:24;;;;;;;3.55;0.70;;;;;;;;;;4998156;28;20098;-90
2023/03/04 10:03:05;;;;;;;1.55;0.65;;;;;;;;;;4998678;28;20121;-90
2023/03/04 10:05:33;;;;;;;4.70;0.60;;;;;;;;;;4980142;28;20024;-81
2023/03/04 10:08:14;;;;;;;2.67;0.80;;;;;;;;;;4981365;28;20377;-87
2023/03/04 10:10:42;;;;;;;1.05;0.40;;;;;;;;;;4989273;28;20034;-86
2023/03/04 10:13:14;;;;;;;3.80;0.70;;;;;;;;;;4985684;28;20058;-88
2023/03/04 10:15:42;;;;;;;2.38;0.60;;;;;;;;;;4988338;28;20041;-93
2023/03/04 10:18:30;;;;;;;1.17;0.70;;;;;;;;;;4985662;28;20065;-91
2023/03/04 10:21:17;;;;;;;0.40;0.40;;;;;;;;;;4978263;28;20029;-91
2023/03/04 10:23:43;;;;;;;1.80;0.88;;;;;;;;;;5001507;28;20022;-91
2023/03/04 10:26:13;;;;;;;2.15;0.47;;;;;;;;;;4982548;28;20125;-90
2023/03/04 10:28:38;;;;;;;1.58;0.47;;;;;;;;;;4986272;28;20026;-90
2023/03/04 10:31:07;;;;;;;2.95;0.60;;;;;;;;;;4972579;28;20160;-89
2023/03/04 10:33:41;;;;;;;1.42;0.60;;;;;;;;;;4981110;28;20042;-92
2023/03/04 10:36:22;;;;;;;0.50;0.50;;;;;;;;;;4987255;28;20056;-95
2023/03/04 10:38:48;;;;;;;2.75;0.80;;;;;;;;;;4998585;28;20436;-89
2023/03/04 10:41:16;;;;;;;1.13;0.50;;;;;;;;;;4980079;28;20144;-91
2023/03/04 10:43:44;;;;;;;0.82;0.60;;;;;;;;;;4979484;28;20054;-89
2023/03/04 10:46:11;;;;;;;1.02;0.50;;;;;;;;;;4975338;28;20382;-92
2023/03/04 10:48:45;;;;;;;1.95;0.50;;;;;;;;;;4986031;28;20085;-93
2023/03/04 10:51:22;;;;;;;0.90;0.60;;;;;;;;;;4987564;28;20054;-93
2023/03/04 10:53:51;;;;;;;5.78;0.52;;;;;;;;;;4986900;28;20197;-91
2023/03/04 10:56:30;;;;;;;0.98;0.50;;;;;;;;;;4986888;28;20037;-92
2023/03/04 10:59:34;;;;;;;0.85;0.50;;;;;;;;;;4981291;28;20026;-87
2023/03/04 11:02:19;;;;;;;0.60;0.45;;;;;;;;;;4997164;28;20385;-87
2023/03/04 11:04:56;;;;;;;1.05;0.50;;;;;;;;;;4999431;28;20026;-89
2023/03/04 11:07:26;;;;;;;1.05;0.57;;;;;;;;;;5002014;28;20034;-88
2023/03/04 11:09:52;;;;;;;6.00;0.98;;;;;;;;;;4982379;28;20101;-88
2023/03/04 11:12:20;;;;;;;2.08;0.70;;;;;;;;;;4979809;28;20449;-91
2023/03/04 11:14:49;;;;;;;2.65;1.02;;;;;;;;;;4982517;28;20069;-93
2023/03/04 11:17:39;;;;;;;2.63;1.00;;;;;;;;;;4981906;28;20045;-96
2023/03/04 11:20:05;;;;;;;2.03;0.55;;;;;;;;;;4981411;28;20042;-95
2023/03/04 11:22:31;;;;;;;1.65;0.47;;;;;;;;;;4996656;28;20022;-93
2023/03/04 11:25:10;;;;;;;1.85;0.68;;;;;;;;;;4996406;28;20080;-93
2023/03/04 11:27:41;;;;;;;1.83;0.75;;;;;;;;;;4963475;28;20069;-93
2023/03/04 11:30:26;;;;;;;0.95;0.50;;;;;;;;;;4979836;28;20023;-92
2023/03/04 11:32:54;;;;;;;1.15;0.50;;;;;;;;;;4996534;28;20105;-92
2023/03/04 11:35:32;;;;;;;0.98;0.47;;;;;;;;;;4978976;28;20026;-92
2023/03/04 11:38:06;;;;;;;1.40;0.52;;;;;;;;;;4963077;28;20026;-89
2023/03/04 11:40:40;;;;;;;3.35;0.82;;;;;;;;;;4996464;28;20030;-92
2023/03/04 11:43:13;;;;;;;1.40;0.65;;;;;;;;;;4979306;28;20031;-90
2023/03/04 11:46:10;;;;;;;0.60;0.50;;;;;;;;;;4970842;28;20033;-93
2023/03/04 11:48:41;;;;;;;0.85;0.47;;;;;;;;;;5000660;28;20430;-90
2023/03/04 11:51:18;;;;;;;2.03;0.60;;;;;;;;;;4980919;28;20046;-90
2023/03/04 11:54:25;;;;;;;3.03;0.65;;;;;;;;;;4966421;28;20386;-94
2023/03/04 11:56:53;;;;;;;1.08;0.93;;;;;;;;;;4926751;28;20103;-90
2023/03/04 11:59:33;;;;;;;0.60;0.60;;;;;;;;;;4962216;28;20022;-91
2023/03/04 12:02:17;;;;;;;1.08;0.70;;;;;;;;;;4977396;28;20022;-89
2023/03/04 12:04:54;;;;;;;0.68;0.68;;;;;;;;;;4977487;28;20084;-87
2023/03/04 12:07:44;;;;;;;3.78;0.73;;;;;;;;;;4997055;28;20041;-88
2023/03/04 12:10:27;;;;;;;0.60;0.50;;;;;;;;;;4997134;28;20030;-90
2023/03/04 12:13:20;;;;;;;5.20;0.90;;;;;;;;;;4977541;28;20022;-90
2023/03/04 12:15:59;;;;;;;3.00;0.80;;;;;;;;;;4976815;28;20022;-89
2023/03/04 12:18:39;;;;;;;1.33;0.63;;;;;;;;;;4978142;28;20030;-91
2023/03/04 12:21:32;;;;;;;3.00;0.73;;;;;;;;;;5002022;28;20217;-91
2023/03/04 12:24:13;;;;;;;2.08;0.80;;;;;;;;;;4989611;28;20121;-90
2023/03/04 12:26:42;;;;;;;1.45;0.70;;;;;;;;;;4990820;28;20068;-91
2023/03/04 12:29:52;;;;;;;0.57;0.50;;;;;;;;;;4978567;28;20465;-88
2023/03/04 12:32:55;;;;;;;2.10;0.80;;;;;;;;;;4934898;28;20060;-89
2023/03/04 12:36:04;;;;;;;2.53;0.77;;;;;;;;;;4997220;28;20204;-92
2023/03/04 12:38:45;;;;;;;3.47;1.20;;;;;;;;;;4902287;29;20039;-90
2023/03/04 12:41:33;;;;;;;0.65;0.65;;;;;;;;;;4917335;29;20123;-91
2023/03/04 12:44:15;;;;;;;1.30;0.75;;;;;;;;;;4918822;29;20124;-88
2023/03/04 12:47:32;;;;;;;0.75;0.63;;;;;;;;;;4917638;29;20453;-89
2023/03/04 12:50:08;;;;;;;1.83;0.98;;;;;;;;;;4906421;29;20104;-89
2023/03/04 12:53:12;;;;;;;1.13;0.80;;;;;;;;;;4916231;29;20102;-90
2023/03/04 12:55:44;;;;;;;2.63;1.10;;;;;;;;;;4897932;29;20037;-89
2023/03/04 12:58:15;;;;;;;2.58;1.20;;;;;;;;;;4867671;29;20096;-91
2023/03/04 13:01:11;;;;;;;3.35;1.20;;;;;;;;;;4866099;29;20033;-89
2023/03/04 13:04:00;;;;;;;7.78;1.30;;;;;;;;;;4889514;29;20037;-90
2023/03/04 13:06:35;;;;;;;2.50;1.00;;;;;;;;;;4882481;29;20147;-91
2023/03/04 13:09:00;;;;;;;3.58;1.10;;;;;;;;;;4898565;29;20046;-90
2023/03/04 13:11:26;;;;;;;5.22;1.17;;;;;;;;;;4900264;29;20048;-89
2023/03/04 13:14:22;;;;;;;7.05;1.63;;;;;;;;;;4904503;29;20240;-91
2023/03/04 13:16:56;;;;;;;4.45;1.40;;;;;;;;;;4908329;29;20039;-92
2023/03/04 13:19:44;;;;;;;6.57;1.50;;;;;;;;;;4908077;29;20532;-91
2023/03/04 13:22:38;;;;;;;2.42;1.20;;;;;;;;;;4921797;29;20036;-94
2023/03/04 13:25:32;;;;;;;3.53;1.73;;;;;;;;;;4922505;29;20036;-92
2023/03/04 13:28:14;;;;;;;4.18;1.50;;;;;;;;;;4995800;28;20030;-92
2023/03/04 13:30:48;;;;;;;2.83;1.30;;;;;;;;;;5011444;28;20086;-92
2023/03/04 13:33:13;;;;;;;2.85;1.35;;;;;;;;;;5002433;28;20030;-91
2023/03/04 13:35:47;;;;;;;5.47;1.35;;;;;;;;;;4999294;28;20026;-90
2023/03/04 13:38:40;;;;;;;4.30;1.20;;;;;;;;;;5001382;28;20046;-94
2023/03/04 13:41:14;;;;;;;5.53;1.60;;;;;;;;;;4979916;28;20038;-91
2023/03/04 13:43:47;;;;;;;3.88;1.38;;;;;;;;;;5000602;28;20465;-91
2023/03/04 13:46:18;;;;;;;3.95;1.45;;;;;;;;;;4987641;28;20092;-92
2023/03/04 13:48:50;;;;;;;5.47;1.33;;;;;;;;;;4984611;28;20045;-93
2023/03/04 13:51:16;;;;;;;2.47;1.33;;;;;;;;;;4981575;28;20058;-94
2023/03/04 13:53:44;;;;;;;4.97;1.60;;;;;;;;;;4981447;28;20023;-93
2023/03/04 13:56:27;;;;;;;3.50;1.30;;;;;;;;;;4981084;28;20026;-95
2023/03/04 13:59:08;;;;;;;4.47;1.50;;;;;;;;;;4981177;28;20029;-92
2023/03/04 14:01:36;;;;;;;3.88;1.63;;;;;;;;;;4998521;28;20529;-93
2023/03/04 14:04:19;;;;;;;4.28;1.52;;;;;;;;;;4999257;28;20066;-95
2023/03/04 14:06:49;;;;;;;2.70;1.03;;;;;;;;;;4998110;28;20026;-93
2023/03/04 14:09:19;;;;;;;3.40;1.40;;;;;;;;;;4981629;28;20033;-93
2023/03/04 14:11:44;;;;;;;4.20;1.48;;;;;;;;;;4981163;28;20030;-93
2023/03/04 14:14:13;;;;;;;2.67;1.30;;;;;;;;;;4965512;28;20441;-93
2023/03/04 14:16:43;;;;;;;4.15;1.30;;;;;;;;;;4996471;28;20133;-93
2023/03/04 14:19:37;;;;;;;3.67;1.27;;;;;;;;;;4981952;28;20446;-93
2023/03/04 14:22:17;;;;;;;3.55;1.10;;;;;;;;;;4999099;28;20058;-94
2023/03/04 14:25:05;;;;;;;1.83;1.00;;;;;;;;;;4981430;28;20034;-94
2023/03/04 14:27:34;;;;;;;1.90;0.95;;;;;;;;;;4982511;28;20089;-94
2023/03/04 14:30:02;;;;;;;2.67;1.30;;;;;;;;;;4975721;28;20031;-93
2023/03/04 14:32:28;;;;;;;2.97;1.27;;;;;;;;;;4984202;28;20054;-91
2023/03/04 14:34:57;;;;;;;5.88;1.20;;;;;;;;;;4982713;28;20524;-88
2023/03/04 14:37:26;;;;;;;5.60;2.20;;;;;;;;;;4987451;28;20054;-91
2023/03/04 14:39:55;;;;;;;3.42;1.67;;;;;;;;;;4971050;28;20027;-94
2023/03/04 14:42:23;;;;;;;4.20;1.67;;;;;;;;;;4983469;28;20105;-94
2023/03/04 14:44:50;;;;;;;2.80;1.80;;;;;;;;;;4995907;28;20022;-93
2023/03/04 14:47:33;;;;;;;3.97;1.63;;;;;;;;;;4964859;28;20113;-92
2023/03/04 14:49:59;;;;;;;4.38;1.23;;;;;;;;;;4982792;28;20088;-92
2023/03/04 14:52:31;;;;;;;5.85;1.83;;;;;;;;;;4970993;28;20034;-93
2023/03/04 14:55:24;;;;;;;3.72;1.48;;;;;;;;;;5000366;28;20086;-93
2023/03/04 14:58:19;;;;;;;4.47;1.08;;;;;;;;;;4965859;28;20073;-91
2023/03/04 15:00:45;;;;;;;4.28;1.33;;;;;;;;;;4978678;28;20457;-84